Time;durP1;ratioP1;P1;durP2;ratioP2;P2;SDS_P1;SDS_P2;PMS_P1;PMS_P2;Temp;Humidity;BMP_temperature;BMP_pressure;BME280_temperature;BME280_humidity;BME280_pressure;Samples;Min_cycle;Max_cycle;Signal;HPM_P1;HPM_P2
2022/01/21 00:01:33;;;;;;;0.60;0.50;;;1.60;99.90;;;;;;5018419;28;20412;-73
2022/01/21 00:03:59;;;;;;;0.60;0.60;;;1.70;99.90;;;;;;5009825;28;20884;-73
2022/01/21 00:06:24;;;;;;;0.60;0.60;;;1.70;99.90;;;;;;5002769;28;20427;-73
2022/01/21 00:08:51;;;;;;;1.37;1.27;;;1.80;99.90;;;;;;5009831;28;20168;-73
2022/01/21 00:11:18;;;;;;;0.60;0.50;;;1.90;99.90;;;;;;5003165;28;20204;-73
2022/01/21 00:13:44;;;;;;;0.60;0.50;;;1.90;99.90;;;;;;5000881;28;20483;-73
2022/01/21 00:16:14;;;;;;;0.60;0.50;;;1.90;99.90;;;;;;5007712;28;20438;-73
2022/01/21 00:18:45;;;;;;;0.70;0.70;;;1.80;99.90;;;;;;5002501;28;20456;-73
2022/01/21 00:32:08;;;;;;;0.90;0.90;;;1.70;99.90;;;;;;5004921;28;20432;-72
2022/01/21 00:34:34;;;;;;;0.60;0.50;;;1.70;99.90;;;;;;4989534;28;20423;-73
2022/01/21 00:37:00;;;;;;;0.70;0.60;;;1.70;99.90;;;;;;4989900;28;20950;-73
2022/01/21 00:39:29;;;;;;;0.60;0.50;;;1.70;99.90;;;;;;4990058;28;20554;-73
2022/01/21 00:42:06;;;;;;;0.60;0.50;;;1.70;99.90;;;;;;4999891;28;20724;-73
2022/01/21 00:44:32;;;;;;;0.60;0.57;;;1.60;99.90;;;;;;5011695;28;20442;-73
2022/01/21 00:46:57;;;;;;;0.60;0.50;;;1.60;99.90;;;;;;4993195;28;20523;-73
2022/01/21 00:49:23;;;;;;;0.60;0.50;;;1.60;99.90;;;;;;5003001;28;20188;-73
2022/01/21 00:51:49;;;;;;;0.60;0.50;;;1.50;99.90;;;;;;5007726;28;20282;-73
2022/01/21 00:54:15;;;;;;;0.60;0.50;;;1.50;99.90;;;;;;4992469;28;20193;-73
2022/01/21 00:56:40;;;;;;;0.60;0.50;;;1.50;99.90;;;;;;4992554;28;20232;-73
2022/01/21 00:59:06;;;;;;;29.50;2.07;;;1.50;99.90;;;;;;5006605;28;20533;-73
2022/01/21 01:01:32;;;;;;;0.60;0.50;;;1.50;99.90;;;;;;5006730;28;20249;-73
2022/01/21 01:03:57;;;;;;;0.60;0.50;;;1.50;99.90;;;;;;4993207;28;20184;-72
2022/01/21 01:06:23;;;;;;;1.27;1.00;;;1.40;99.90;;;;;;5008835;28;21884;-73
2022/01/21 01:08:51;;;;;;;0.60;0.50;;;1.50;99.90;;;;;;5010609;28;20434;-72
2022/01/21 01:11:23;;;;;;;0.60;0.50;;;1.50;99.90;;;;;;5011379;28;20204;-71
2022/01/21 01:22:04;;;;;;;0.60;0.50;;;1.50;99.90;;;;;;5006423;28;20478;-72
2022/01/21 01:29:57;;;;;;;0.60;0.50;;;1.50;99.90;;;;;;4995820;28;21134;-72
2022/01/21 01:32:24;;;;;;;0.60;0.50;;;1.50;99.90;;;;;;5010654;28;20431;-72
2022/01/21 01:34:49;;;;;;;0.60;0.50;;;1.40;99.90;;;;;;5010701;28;20196;-72
2022/01/21 01:37:30;;;;;;;0.60;0.50;;;1.40;99.90;;;;;;5010658;28;20567;-72
2022/01/21 01:40:20;;;;;;;0.60;0.50;;;1.50;99.90;;;;;;4991568;28;20260;-72
2022/01/21 01:43:06;;;;;;;0.60;0.50;;;1.60;99.90;;;;;;4993950;28;20426;-72
2022/01/21 01:50:51;;;;;;;0.60;0.50;;;1.60;99.90;;;;;;5011045;28;20419;-73
2022/01/21 01:53:33;;;;;;;0.60;0.50;;;1.60;99.90;;;;;;5011257;28;20458;-73
2022/01/21 01:56:02;;;;;;;0.60;0.50;;;1.60;99.90;;;;;;5023968;28;20430;-73
2022/01/21 01:58:27;;;;;;;1.07;1.03;;;1.70;99.90;;;;;;5024375;28;20454;-73
2022/01/21 02:00:56;;;;;;;0.60;0.50;;;1.70;99.90;;;;;;5011392;28;20496;-73
2022/01/21 02:03:22;;;;;;;0.60;0.50;;;1.70;99.90;;;;;;5008046;28;20179;-73
2022/01/21 02:05:48;;;;;;;0.60;0.50;;;1.70;99.90;;;;;;5009258;28;20816;-72
2022/01/21 02:08:13;;;;;;;0.60;0.50;;;1.70;99.90;;;;;;5010461;28;20503;-72
2022/01/21 02:10:40;;;;;;;2.93;1.13;;;1.70;99.90;;;;;;5001130;28;20713;-72
2022/01/21 02:13:20;;;;;;;1.63;1.37;;;1.60;99.90;;;;;;4996814;28;20300;-72
2022/01/21 02:16:00;;;;;;;0.60;0.50;;;1.60;99.90;;;;;;5010218;28;20480;-72
2022/01/21 02:21:31;;;;;;;0.60;0.50;;;1.60;99.90;;;;;;4996216;28;20428;-72
2022/01/21 02:24:03;;;;;;;0.60;0.50;;;1.60;99.90;;;;;;4990773;28;20467;-72
2022/01/21 02:26:29;;;;;;;0.60;0.50;;;1.60;99.90;;;;;;4997409;28;20454;-72
2022/01/21 02:28:56;;;;;;;0.60;0.50;;;1.60;99.90;;;;;;5009619;28;20403;-72
2022/01/21 02:31:22;;;;;;;0.60;0.50;;;1.60;99.90;;;;;;5001783;28;20411;-72
2022/01/21 02:33:48;;;;;;;0.60;0.50;;;1.70;99.90;;;;;;5010067;28;20826;-71
2022/01/21 02:36:13;;;;;;;0.60;0.50;;;1.80;99.90;;;;;;5009849;28;20172;-71
2022/01/21 02:38:39;;;;;;;0.60;0.50;;;1.80;99.90;;;;;;5002825;28;20504;-71
2022/01/21 02:41:04;;;;;;;0.60;0.50;;;1.80;99.90;;;;;;4998648;28;20169;-72
2022/01/21 02:43:30;;;;;;;0.60;0.50;;;1.80;99.90;;;;;;5003608;28;20193;-72
2022/01/21 02:45:56;;;;;;;0.60;0.50;;;1.90;99.90;;;;;;4999945;28;20172;-72
2022/01/21 02:48:22;;;;;;;0.60;0.50;;;1.90;99.90;;;;;;5009895;28;20199;-72
2022/01/21 02:50:48;;;;;;;0.63;0.63;;;2.00;99.90;;;;;;5010358;28;20243;-73
2022/01/21 02:53:27;;;;;;;0.60;0.50;;;1.90;99.90;;;;;;5008945;28;20793;-73
2022/01/21 02:55:53;;;;;;;0.60;0.50;;;1.90;99.90;;;;;;5010597;28;20628;-72
2022/01/21 02:58:19;;;;;;;1.17;1.17;;;1.90;99.90;;;;;;5009506;28;20467;-73
2022/01/21 03:00:45;;;;;;;0.60;0.60;;;1.90;99.90;;;;;;5014037;28;20492;-73
2022/01/21 03:03:10;;;;;;;0.60;0.50;;;1.90;99.90;;;;;;5073008;28;20201;-73
2022/01/21 03:05:38;;;;;;;0.90;0.90;;;1.90;99.90;;;;;;5056686;28;20558;-72
2022/01/21 03:08:08;;;;;;;0.60;0.50;;;1.90;99.90;;;;;;5003848;28;20212;-73
2022/01/21 03:10:33;;;;;;;0.60;0.50;;;2.00;99.90;;;;;;5010353;28;20418;-73
2022/01/21 03:12:59;;;;;;;0.60;0.60;;;2.00;99.90;;;;;;5009783;28;20819;-73
2022/01/21 03:15:24;;;;;;;0.70;0.70;;;2.00;99.90;;;;;;5009880;28;20191;-73
2022/01/21 03:17:50;;;;;;;0.60;0.50;;;2.10;99.90;;;;;;5025402;28;20215;-73
2022/01/21 03:20:16;;;;;;;0.60;0.50;;;2.20;99.90;;;;;;5009625;28;20187;-72
2022/01/21 03:22:41;;;;;;;0.60;0.50;;;2.20;99.90;;;;;;5008709;28;20267;-72
2022/01/21 03:25:07;;;;;;;0.60;0.60;;;2.20;99.90;;;;;;5009740;28;20200;-72
2022/01/21 03:27:33;;;;;;;0.60;0.50;;;2.10;99.90;;;;;;5009905;28;20200;-72
2022/01/21 03:29:59;;;;;;;0.60;0.50;;;2.20;99.90;;;;;;5009769;28;20421;-72
2022/01/21 03:32:26;;;;;;;0.60;0.50;;;2.30;99.90;;;;;;5009267;28;20521;-72
2022/01/21 03:34:51;;;;;;;0.70;0.60;;;2.30;99.90;;;;;;5007633;28;20215;-72
2022/01/21 03:37:17;;;;;;;0.60;0.50;;;2.30;99.90;;;;;;5009480;28;20482;-72
2022/01/21 03:39:42;;;;;;;0.60;0.50;;;2.30;99.90;;;;;;5009383;28;20239;-72
2022/01/21 03:42:08;;;;;;;0.60;0.50;;;2.40;99.90;;;;;;5009429;28;20172;-72
2022/01/21 03:44:34;;;;;;;0.93;0.87;;;2.30;99.90;;;;;;5009087;28;20176;-72
2022/01/21 03:47:00;;;;;;;0.60;0.50;;;2.30;99.90;;;;;;5009203;28;20679;-72
2022/01/21 03:49:28;;;;;;;0.70;0.70;;;2.30;99.90;;;;;;5009373;28;20430;-72
2022/01/21 03:51:53;;;;;;;0.60;0.60;;;2.30;99.90;;;;;;5010062;28;20178;-72
2022/01/21 03:54:19;;;;;;;0.60;0.50;;;2.30;99.90;;;;;;5009774;28;20439;-73
2022/01/21 03:56:44;;;;;;;0.70;0.70;;;2.30;99.90;;;;;;5009214;28;20200;-73
2022/01/21 03:59:10;;;;;;;0.60;0.50;;;2.30;99.90;;;;;;5009704;28;20287;-73
2022/01/21 04:01:36;;;;;;;0.60;0.50;;;2.30;99.90;;;;;;5009241;28;20553;-72
2022/01/21 04:04:01;;;;;;;0.60;0.50;;;2.30;99.90;;;;;;5008892;28;20180;-72
2022/01/21 04:06:27;;;;;;;0.60;0.50;;;2.30;99.90;;;;;;5007077;28;20470;-72
2022/01/21 04:08:53;;;;;;;0.60;0.50;;;2.20;99.90;;;;;;5008961;28;20179;-72
2022/01/21 04:11:18;;;;;;;0.60;0.50;;;2.20;99.90;;;;;;5009630;28;20184;-72
2022/01/21 04:13:45;;;;;;;0.60;0.50;;;2.20;99.90;;;;;;5009441;28;20184;-73
2022/01/21 04:16:11;;;;;;;0.60;0.50;;;2.20;99.90;;;;;;5012057;28;20256;-72
2022/01/21 04:18:36;;;;;;;2.50;1.00;;;2.20;99.90;;;;;;5011537;28;20616;-72
2022/01/21 04:21:02;;;;;;;0.60;0.50;;;2.20;99.90;;;;;;5011994;28;20213;-72
2022/01/21 04:23:28;;;;;;;0.60;0.50;;;2.20;99.90;;;;;;5012041;28;20601;-72
2022/01/21 04:25:53;;;;;;;0.60;0.50;;;2.30;99.90;;;;;;5011807;28;20207;-72
2022/01/21 04:28:19;;;;;;;0.60;0.50;;;2.30;99.90;;;;;;5011802;28;20199;-72
2022/01/21 04:30:45;;;;;;;1.43;1.23;;;2.40;99.90;;;;;;5010604;28;20176;-72
2022/01/21 04:33:11;;;;;;;2.87;1.03;;;2.40;99.90;;;;;;5011837;28;20222;-72
2022/01/21 04:35:37;;;;;;;0.60;0.50;;;2.50;99.90;;;;;;5011128;28;20427;-72
2022/01/21 04:38:06;;;;;;;0.60;0.50;;;2.50;99.90;;;;;;5011577;28;20462;-71
2022/01/21 04:40:36;;;;;;;0.60;0.50;;;2.50;99.90;;;;;;5011904;28;20404;-72
2022/01/21 04:48:31;;;;;;;0.60;0.60;;;2.50;99.90;;;;;;5011556;28;20877;-72
2022/01/21 04:51:10;;;;;;;0.60;0.60;;;2.60;99.90;;;;;;5011776;28;20414;-72
2022/01/21 04:53:36;;;;;;;0.60;0.50;;;2.50;99.90;;;;;;5011099;28;20267;-72
2022/01/21 04:56:02;;;;;;;2.83;1.03;;;2.60;99.90;;;;;;5011317;28;20522;-72
2022/01/21 04:58:27;;;;;;;0.60;0.50;;;2.60;99.90;;;;;;5011574;28;20203;-72
2022/01/21 05:00:53;;;;;;;0.60;0.50;;;2.50;99.90;;;;;;5011129;28;20176;-72
2022/01/21 05:03:18;;;;;;;1.00;1.00;;;2.60;99.90;;;;;;5011051;28;20176;-72
2022/01/21 05:05:44;;;;;;;0.60;0.60;;;2.50;99.90;;;;;;5011207;28;20267;-72
2022/01/21 05:08:20;;;;;;;0.60;0.50;;;2.60;99.90;;;;;;5011281;28;20608;-72
2022/01/21 05:10:46;;;;;;;0.60;0.60;;;2.60;99.90;;;;;;5011505;28;20168;-72
2022/01/21 05:13:15;;;;;;;0.60;0.50;;;2.60;99.90;;;;;;5011324;28;21084;-72
2022/01/21 05:18:25;;;;;;;0.60;0.50;;;2.60;99.90;;;;;;5009410;28;20473;-73
2022/01/21 05:20:50;;;;;;;0.60;0.50;;;2.50;99.90;;;;;;5011046;28;20430;-72
2022/01/21 05:23:16;;;;;;;0.60;0.50;;;2.50;99.90;;;;;;5010792;28;20911;-72
2022/01/21 05:25:42;;;;;;;0.60;0.60;;;2.50;99.90;;;;;;5010823;28;20184;-74
2022/01/21 05:28:07;;;;;;;0.70;0.70;;;2.50;99.90;;;;;;5010889;28;20668;-72
2022/01/21 05:30:33;;;;;;;0.60;0.50;;;2.50;99.90;;;;;;5024585;28;20182;-72
2022/01/21 05:32:59;;;;;;;0.60;0.50;;;2.50;99.90;;;;;;5025586;28;20617;-72
2022/01/21 05:35:25;;;;;;;2.17;1.40;;;2.50;99.90;;;;;;5010349;28;20427;-73
2022/01/21 05:37:51;;;;;;;0.60;0.50;;;2.50;99.90;;;;;;5011060;28;20196;-73
2022/01/21 05:40:18;;;;;;;0.60;0.57;;;2.50;99.90;;;;;;5010757;28;20775;-72
2022/01/21 05:42:44;;;;;;;1.10;1.03;;;2.40;99.90;;;;;;5010671;28;20179;-73
2022/01/21 05:47:54;;;;;;;0.60;0.50;;;2.50;99.90;;;;;;5010649;28;20725;-73
2022/01/21 05:50:20;;;;;;;0.60;0.53;;;2.50;99.90;;;;;;5010064;28;20423;-73
2022/01/21 05:52:47;;;;;;;0.60;0.50;;;2.60;99.90;;;;;;5010862;28;20519;-73
2022/01/21 05:55:13;;;;;;;0.60;0.60;;;2.60;99.90;;;;;;5008885;28;20184;-73
2022/01/21 05:57:39;;;;;;;1.13;1.13;;;2.60;99.90;;;;;;5010599;28;20431;-73
2022/01/21 06:00:05;;;;;;;0.60;0.50;;;2.70;99.90;;;;;;5010272;28;20553;-72
2022/01/21 06:02:31;;;;;;;0.70;0.70;;;2.60;99.90;;;;;;5008764;28;20183;-72
2022/01/21 06:04:57;;;;;;;1.00;0.73;;;2.60;99.90;;;;;;5010112;28;20927;-72
2022/01/21 06:07:22;;;;;;;0.60;0.50;;;2.60;99.90;;;;;;5010464;28;20700;-73
2022/01/21 06:09:48;;;;;;;0.60;0.50;;;2.70;99.90;;;;;;5009983;28;20173;-73
2022/01/21 06:12:14;;;;;;;0.90;0.67;;;2.60;99.90;;;;;;5010359;28;20688;-73
2022/01/21 06:14:39;;;;;;;0.60;0.50;;;2.70;99.90;;;;;;5008857;28;20263;-73
2022/01/21 06:17:06;;;;;;;0.60;0.60;;;2.70;99.90;;;;;;5009612;28;20202;-73
2022/01/21 06:19:31;;;;;;;0.60;0.50;;;2.70;99.90;;;;;;5010341;28;20239;-73
2022/01/21 06:21:57;;;;;;;0.60;0.50;;;2.60;99.90;;;;;;5010264;28;20457;-73
2022/01/21 06:24:22;;;;;;;0.60;0.60;;;2.60;99.90;;;;;;5010047;28;20210;-72
2022/01/21 06:26:48;;;;;;;1.37;1.27;;;2.60;99.90;;;;;;5009999;28;20680;-73
2022/01/21 06:29:14;;;;;;;0.60;0.50;;;2.50;99.90;;;;;;5010241;28;20652;-73
2022/01/21 06:31:39;;;;;;;0.60;0.60;;;2.60;99.90;;;;;;5009831;28;20229;-73
2022/01/21 06:34:05;;;;;;;0.60;0.50;;;2.50;99.90;;;;;;5009969;28;20212;-73
2022/01/21 06:36:30;;;;;;;0.60;0.50;;;2.50;99.90;;;;;;5009957;28;20196;-73
2022/01/21 06:38:56;;;;;;;0.60;0.50;;;2.50;99.90;;;;;;5009515;28;20201;-72
2022/01/21 06:41:22;;;;;;;0.60;0.50;;;2.50;99.90;;;;;;5008315;28;20648;-73
2022/01/21 06:43:48;;;;;;;0.60;0.50;;;2.50;99.90;;;;;;5009692;28;20190;-72
2022/01/21 06:46:14;;;;;;;0.60;0.50;;;2.50;99.90;;;;;;5007911;28;20561;-73
2022/01/21 06:48:39;;;;;;;0.60;0.60;;;2.50;99.90;;;;;;5009348;28;20470;-73
2022/01/21 06:51:06;;;;;;;0.60;0.50;;;2.50;99.90;;;;;;5009574;28;20184;-73
2022/01/21 06:53:31;;;;;;;0.63;0.60;;;2.60;99.90;;;;;;5010016;28;20643;-73
2022/01/21 06:55:57;;;;;;;0.60;0.50;;;2.60;99.90;;;;;;5008464;28;20459;-72
2022/01/21 06:58:23;;;;;;;0.60;0.50;;;2.50;99.90;;;;;;5009933;28;20200;-72
2022/01/21 07:00:49;;;;;;;0.60;0.50;;;2.50;99.90;;;;;;5009811;28;20173;-73
2022/01/21 07:03:14;;;;;;;1.27;1.27;;;2.50;99.90;;;;;;5009831;28;20414;-72
2022/01/21 07:05:40;;;;;;;0.60;0.50;;;2.60;99.90;;;;;;5009270;28;20172;-72
2022/01/21 07:08:06;;;;;;;0.60;0.50;;;2.60;99.90;;;;;;5009533;28;20208;-72
2022/01/21 07:10:32;;;;;;;0.60;0.50;;;2.60;99.90;;;;;;5009423;28;20187;-72
2022/01/21 07:12:58;;;;;;;0.60;0.50;;;2.60;99.90;;;;;;5009505;28;20208;-72
2022/01/21 07:15:24;;;;;;;0.60;0.60;;;2.60;99.90;;;;;;5009307;28;20521;-73
2022/01/21 07:17:52;;;;;;;1.17;1.17;;;2.60;99.90;;;;;;5009987;28;20439;-72
2022/01/21 07:20:18;;;;;;;0.60;0.50;;;2.60;99.90;;;;;;5010054;28;20776;-73
2022/01/21 07:22:44;;;;;;;0.60;0.50;;;2.60;99.90;;;;;;5010024;28;20431;-72
2022/01/21 07:25:10;;;;;;;0.60;0.50;;;2.60;99.90;;;;;;5009207;28;20415;-72
2022/01/21 07:27:35;;;;;;;0.60;0.50;;;2.60;99.90;;;;;;5009981;28;20536;-73
2022/01/21 07:30:04;;;;;;;0.60;0.50;;;2.60;99.90;;;;;;5009519;28;20545;-72
2022/01/21 07:32:29;;;;;;;0.60;0.50;;;2.70;99.90;;;;;;5008871;28;20187;-72
2022/01/21 07:34:55;;;;;;;0.60;0.60;;;2.70;99.90;;;;;;5009400;28;20431;-72
2022/01/21 07:37:20;;;;;;;0.90;0.90;;;2.70;99.90;;;;;;5009050;28;20198;-73
2022/01/21 07:39:46;;;;;;;0.63;0.63;;;2.70;99.90;;;;;;5018151;28;20462;-73
2022/01/21 07:42:12;;;;;;;0.60;0.50;;;2.80;99.90;;;;;;5007665;28;20188;-73
2022/01/21 07:44:37;;;;;;;1.07;0.80;;;2.70;99.90;;;;;;5009131;28;20191;-72
2022/01/21 07:47:04;;;;;;;0.60;0.50;;;2.80;99.90;;;;;;5008924;28;20246;-73
2022/01/21 07:49:30;;;;;;;0.60;0.50;;;2.70;99.90;;;;;;5011293;28;20188;-72
2022/01/21 07:51:55;;;;;;;0.67;0.67;;;2.70;99.90;;;;;;5000203;28;20457;-73
2022/01/21 07:54:21;;;;;;;0.60;0.50;;;2.70;99.90;;;;;;5012300;28;20206;-72
2022/01/21 07:56:47;;;;;;;0.80;0.80;;;2.70;99.90;;;;;;5012703;28;20203;-73
2022/01/21 07:59:15;;;;;;;1.33;0.93;;;2.70;99.90;;;;;;5012605;28;20200;-72
2022/01/21 08:01:41;;;;;;;0.70;0.70;;;2.70;99.90;;;;;;5011747;28;20179;-73
2022/01/21 08:04:08;;;;;;;1.13;0.90;;;2.70;99.90;;;;;;5012341;28;20490;-72
2022/01/21 08:06:34;;;;;;;0.70;0.70;;;2.80;99.90;;;;;;5012686;28;20487;-72
2022/01/21 08:08:59;;;;;;;1.30;1.20;;;2.90;99.90;;;;;;5012406;28;20899;-73
2022/01/21 08:11:26;;;;;;;0.60;0.60;;;3.00;99.90;;;;;;5012552;28;20431;-72
2022/01/21 08:13:52;;;;;;;1.03;0.93;;;3.00;99.90;;;;;;5010479;28;20271;-72
2022/01/21 08:16:18;;;;;;;0.60;0.50;;;3.00;99.90;;;;;;5011347;28;20906;-73
2022/01/21 08:18:44;;;;;;;0.60;0.60;;;3.00;99.90;;;;;;5015776;28;20212;-73
2022/01/21 08:21:10;;;;;;;0.60;0.50;;;3.10;99.90;;;;;;5012728;28;20440;-72
2022/01/21 08:23:36;;;;;;;0.60;0.50;;;3.10;99.90;;;;;;5012215;28;20617;-72
2022/01/21 08:26:01;;;;;;;1.17;1.17;;;3.20;99.90;;;;;;5012066;28;20502;-73
2022/01/21 08:28:27;;;;;;;1.53;1.10;;;3.30;99.90;;;;;;5012368;28;20294;-72
2022/01/21 08:30:52;;;;;;;0.60;0.60;;;3.50;99.90;;;;;;5011062;28;20188;-72
2022/01/21 08:33:18;;;;;;;0.67;0.50;;;3.60;99.90;;;;;;5013264;28;20183;-72
2022/01/21 08:35:44;;;;;;;0.80;0.80;;;3.70;99.90;;;;;;5011917;28;20169;-73
2022/01/21 08:38:09;;;;;;;3.40;3.13;;;3.80;99.90;;;;;;5012247;28;20299;-72
2022/01/21 08:40:35;;;;;;;0.60;0.60;;;3.80;99.90;;;;;;5012658;28;20183;-73
2022/01/21 08:43:01;;;;;;;0.70;0.60;;;4.00;99.90;;;;;;5011089;28;20229;-72
2022/01/21 08:45:29;;;;;;;0.60;0.50;;;3.90;99.90;;;;;;5058054;28;20495;-72
2022/01/21 08:47:55;;;;;;;0.70;0.70;;;3.90;99.90;;;;;;5011443;28;20607;-73
2022/01/21 08:50:21;;;;;;;0.60;0.50;;;3.90;99.90;;;;;;5011964;28;20488;-72
2022/01/21 08:52:47;;;;;;;0.90;0.90;;;3.90;99.90;;;;;;5012664;28;20184;-72
2022/01/21 08:55:18;;;;;;;0.60;0.60;;;3.80;99.90;;;;;;5011109;28;20450;-73
2022/01/21 08:57:45;;;;;;;0.73;0.70;;;3.80;99.90;;;;;;5011376;28;20459;-72
2022/01/21 09:00:13;;;;;;;0.70;0.63;;;4.00;99.90;;;;;;5011514;28;20424;-72
2022/01/21 09:02:39;;;;;;;0.60;0.50;;;4.40;99.90;;;;;;5023144;27;20918;-72
2022/01/21 09:05:05;;;;;;;2.67;2.47;;;5.00;99.90;;;;;;5008872;28;20434;-73
2022/01/21 09:07:31;;;;;;;0.70;0.60;;;5.30;99.90;;;;;;5020583;28;20976;-73
2022/01/21 09:09:56;;;;;;;0.67;0.53;;;5.40;99.90;;;;;;5011661;28;20418;-73
2022/01/21 09:12:22;;;;;;;0.70;0.60;;;5.40;99.90;;;;;;5011269;28;20447;-73
2022/01/21 09:14:49;;;;;;;0.83;0.83;;;5.30;99.90;;;;;;5011826;28;20215;-73
2022/01/21 09:17:14;;;;;;;0.60;0.60;;;5.30;99.90;;;;;;5011126;28;20223;-73
2022/01/21 09:19:40;;;;;;;0.60;0.50;;;5.40;99.90;;;;;;5011561;28;20525;-73
2022/01/21 09:22:06;;;;;;;0.80;0.70;;;5.50;99.90;;;;;;5015078;28;20645;-73
2022/01/21 09:24:33;;;;;;;0.67;0.60;;;5.60;99.90;;;;;;5009556;28;20282;-73
2022/01/21 09:27:02;;;;;;;1.10;1.10;;;5.70;99.90;;;;;;5012084;28;20492;-73
2022/01/21 09:29:28;;;;;;;0.80;0.80;;;5.60;99.90;;;;;;5011303;28;20503;-73
2022/01/21 09:31:54;;;;;;;1.33;1.00;;;5.80;99.90;;;;;;5011256;28;20424;-73
2022/01/21 09:34:19;;;;;;;0.70;0.63;;;6.80;99.90;;;;;;5011317;28;20206;-74
2022/01/21 09:36:45;;;;;;;0.67;0.60;;;7.80;99.90;;;;;;5011890;28;20196;-73
2022/01/21 09:39:12;;;;;;;1.57;1.47;;;8.70;99.90;;;;;;5010549;28;20212;-73
2022/01/21 09:41:42;;;;;;;0.67;0.60;;;9.40;99.90;;;;;;5011373;28;20403;-73
2022/01/21 09:44:12;;;;;;;0.70;0.70;;;10.00;99.90;;;;;;5009435;28;20461;-74
2022/01/21 09:46:38;;;;;;;1.20;0.97;;;10.30;99.90;;;;;;5010560;28;20959;-74
2022/01/21 09:49:09;;;;;;;2.03;1.07;;;10.40;99.90;;;;;;5010953;28;20550;-73
2022/01/21 09:51:36;;;;;;;0.90;0.90;;;11.10;99.90;;;;;;5010948;28;20414;-71
2022/01/21 09:54:05;;;;;;;0.93;0.93;;;11.90;99.90;;;;;;5011213;28;20451;-72
2022/01/21 09:56:31;;;;;;;1.80;1.30;;;12.80;99.90;;;;;;5011322;28;20550;-72
2022/01/21 09:58:59;;;;;;;2.70;0.90;;;13.60;99.90;;;;;;5010454;28;21015;-72
2022/01/21 10:01:26;;;;;;;2.20;1.27;;;14.60;94.30;;;;;;5010435;28;20443;-73
2022/01/21 10:03:53;;;;;;;0.80;0.70;;;14.50;85.80;;;;;;5010213;28;20523;-72
2022/01/21 10:06:22;;;;;;;3.73;1.10;;;14.10;88.10;;;;;;5010411;28;20769;-72
2022/01/21 10:08:50;;;;;;;1.57;1.43;;;13.80;91.30;;;;;;5010772;28;20893;-73
2022/01/21 10:11:18;;;;;;;0.73;0.70;;;13.30;90.50;;;;;;5010721;28;20411;-72
2022/01/21 10:13:48;;;;;;;0.80;0.80;;;12.90;94.50;;;;;;5009029;28;20531;-72
2022/01/21 10:16:13;;;;;;;0.73;0.70;;;12.30;99.90;;;;;;5010199;28;20407;-72
2022/01/21 10:18:58;;;;;;;1.00;0.90;;;11.70;99.90;;;;;;5010443;28;20594;-72
2022/01/21 10:21:30;;;;;;;0.80;0.80;;;11.60;99.90;;;;;;5010740;28;20267;-72
2022/01/21 10:24:07;;;;;;;0.70;0.70;;;11.20;99.90;;;;;;5009629;28;20443;-73
2022/01/21 10:26:33;;;;;;;0.70;0.70;;;10.90;99.90;;;;;;5008815;28;20445;-73
2022/01/21 10:28:59;;;;;;;1.73;1.00;;;10.30;99.90;;;;;;5010924;28;20796;-74
2022/01/21 10:31:27;;;;;;;0.80;0.80;;;9.80;99.90;;;;;;5010500;28;20400;-72
2022/01/21 10:33:56;;;;;;;2.40;1.37;;;9.40;99.90;;;;;;4992794;28;20184;-73
2022/01/21 10:36:28;;;;;;;1.47;1.23;;;9.30;99.90;;;;;;4990406;28;20412;-73
2022/01/21 10:39:09;;;;;;;1.20;0.83;;;9.10;99.90;;;;;;5016828;28;20871;-72
2022/01/21 10:41:38;;;;;;;1.10;1.10;;;8.80;99.90;;;;;;5009135;28;20442;-72
2022/01/21 10:44:06;;;;;;;0.80;0.70;;;8.70;99.90;;;;;;5045304;28;20480;-73
2022/01/21 10:46:31;;;;;;;0.70;0.60;;;8.60;99.90;;;;;;5009292;28;20462;-72
2022/01/21 10:49:04;;;;;;;0.90;0.80;;;8.30;99.90;;;;;;5009982;28;20520;-73
2022/01/21 10:51:32;;;;;;;0.70;0.70;;;8.20;99.90;;;;;;5009723;28;20173;-73
2022/01/21 10:54:18;;;;;;;11.63;1.03;;;8.20;99.90;;;;;;5009556;28;20455;-72
2022/01/21 10:57:02;;;;;;;2.40;2.30;;;8.00;99.90;;;;;;5007947;28;20466;-73
2022/01/21 10:59:52;;;;;;;0.70;0.60;;;7.80;99.90;;;;;;5000737;28;20455;-72
2022/01/21 11:02:48;;;;;;;0.73;0.73;;;7.50;99.90;;;;;;5006106;28;20534;-74
2022/01/21 11:05:39;;;;;;;0.70;0.63;;;7.40;99.90;;;;;;5011376;28;20432;-72
2022/01/21 11:08:10;;;;;;;4.03;3.43;;;7.40;99.90;;;;;;5010554;28;20459;-73
2022/01/21 11:10:42;;;;;;;0.93;0.83;;;7.30;99.90;;;;;;5008111;28;20466;-73
2022/01/21 11:13:11;;;;;;;0.70;0.60;;;7.20;99.90;;;;;;5010133;28;20435;-73
2022/01/21 11:15:46;;;;;;;1.10;1.00;;;7.20;99.90;;;;;;5008990;28;20962;-72
2022/01/21 11:18:15;;;;;;;0.70;0.60;;;7.10;99.90;;;;;;5003084;28;20469;-73
2022/01/21 11:20:45;;;;;;;3.90;2.47;;;7.20;99.90;;;;;;5008597;28;20966;-73
2022/01/21 11:23:11;;;;;;;0.70;0.60;;;7.30;99.90;;;;;;5011247;28;20435;-73
2022/01/21 11:25:48;;;;;;;2.03;1.80;;;7.40;99.90;;;;;;5011141;28;20427;-74
2022/01/21 11:28:23;;;;;;;0.70;0.60;;;7.60;99.90;;;;;;5011452;28;20459;-74
2022/01/21 11:30:50;;;;;;;0.70;0.60;;;7.90;99.90;;;;;;5009943;28;20450;-73
2022/01/21 11:33:16;;;;;;;0.70;0.60;;;8.10;99.90;;;;;;5009688;28;20443;-73
2022/01/21 11:35:42;;;;;;;0.70;0.70;;;8.30;99.90;;;;;;5012106;28;20555;-73
2022/01/21 11:38:10;;;;;;;0.83;0.83;;;8.30;99.90;;;;;;5009401;28;20478;-73
2022/01/21 11:40:37;;;;;;;4.17;0.80;;;8.30;99.90;;;;;;5009389;28;20439;-74
2022/01/21 11:43:05;;;;;;;1.07;0.80;;;8.20;99.90;;;;;;5010790;28;20435;-74
2022/01/21 11:45:53;;;;;;;0.77;0.77;;;8.10;99.90;;;;;;5010573;28;20443;-74
2022/01/21 11:50:51;;;;;;;0.67;0.50;;;8.00;99.90;;;;;;5007524;28;20442;-72
2022/01/21 11:53:46;;;;;;;0.80;0.80;;;8.00;99.90;;;;;;5015175;28;20458;-73
2022/01/21 11:56:46;;;;;;;0.70;0.60;;;8.00;99.90;;;;;;5016634;28;20513;-73
2022/01/21 12:01:58;;;;;;;0.70;0.60;;;8.10;99.90;;;;;;5007903;28;20756;-73
2022/01/21 12:04:30;;;;;;;2.40;2.20;;;8.00;99.90;;;;;;5009254;28;20439;-73
2022/01/21 12:06:59;;;;;;;0.67;0.60;;;7.80;99.90;;;;;;5010061;28;20447;-74
2022/01/21 12:10:19;;;;;;;7.53;2.30;;;7.70;99.90;;;;;;5010287;28;20427;-74
2022/01/21 12:12:44;;;;;;;0.70;0.60;;;7.40;99.90;;;;;;4949223;28;20461;-74
2022/01/21 12:15:20;;;;;;;0.70;0.60;;;7.10;99.90;;;;;;4987920;28;20454;-74
2022/01/21 12:17:52;;;;;;;1.33;1.23;;;7.00;99.90;;;;;;5009940;28;20556;-73
2022/01/21 12:20:17;;;;;;;1.10;0.80;;;6.90;99.90;;;;;;5009667;28;20438;-74
2022/01/21 12:22:43;;;;;;;0.67;0.60;;;6.90;99.90;;;;;;5009829;28;20423;-74
2022/01/21 12:25:11;;;;;;;0.67;0.60;;;6.70;99.90;;;;;;5009659;28;20544;-73
2022/01/21 12:27:38;;;;;;;0.80;0.80;;;6.70;99.90;;;;;;5009813;28;20624;-74
2022/01/21 12:30:33;;;;;;;0.67;0.50;;;6.60;99.90;;;;;;5008298;28;20463;-74
2022/01/21 12:33:08;;;;;;;0.70;0.60;;;6.70;99.90;;;;;;4981987;28;20920;-74
2022/01/21 12:35:34;;;;;;;0.70;0.70;;;6.60;99.90;;;;;;5010089;28;20790;-73
2022/01/21 12:41:17;;;;;;;0.70;0.67;;;6.70;99.90;;;;;;5013558;28;20180;-73
2022/01/21 12:43:46;;;;;;;0.83;0.73;;;6.70;99.90;;;;;;5013577;28;20427;-73
2022/01/21 12:46:17;;;;;;;1.10;1.10;;;6.80;99.90;;;;;;5013317;28;20431;-74
2022/01/21 12:48:47;;;;;;;0.70;0.70;;;6.80;99.90;;;;;;5011664;28;20415;-73
2022/01/21 12:56:58;;;;;;;8.83;1.03;;;7.10;99.90;;;;;;5003953;28;20526;-73
2022/01/21 12:59:26;;;;;;;0.67;0.60;;;6.90;99.90;;;;;;5012092;28;20473;-73
2022/01/21 13:01:56;;;;;;;1.03;1.03;;;7.00;99.90;;;;;;5011833;28;20439;-73
2022/01/21 13:04:59;;;;;;;4.70;1.27;;;7.00;99.90;;;;;;5011581;28;20476;-73
2022/01/21 13:07:30;;;;;;;0.67;0.53;;;6.90;99.90;;;;;;5009960;28;20447;-73
2022/01/21 13:10:12;;;;;;;0.70;0.60;;;6.90;99.90;;;;;;5002278;28;20446;-74
2022/01/21 13:13:00;;;;;;;0.93;0.83;;;7.00;99.90;;;;;;5012801;28;20443;-73
2022/01/21 13:15:50;;;;;;;0.67;0.60;;;6.90;99.90;;;;;;5011422;28;20522;-73
2022/01/21 13:18:17;;;;;;;0.70;0.70;;;6.90;99.90;;;;;;5005764;28;20466;-73
2022/01/21 13:20:47;;;;;;;0.67;0.50;;;6.70;99.90;;;;;;5012033;28;20801;-73
2022/01/21 13:23:27;;;;;;;0.73;0.73;;;6.60;99.90;;;;;;5011551;28;20471;-73
2022/01/21 13:25:53;;;;;;;1.43;0.90;;;6.60;99.90;;;;;;5013154;28;20439;-74
2022/01/21 13:28:18;;;;;;;0.67;0.50;;;6.50;99.90;;;;;;5012823;28;20466;-74
2022/01/21 13:30:44;;;;;;;0.83;0.83;;;6.50;99.90;;;;;;5011722;28;20685;-74
2022/01/21 13:33:12;;;;;;;0.70;0.60;;;6.60;99.90;;;;;;5011335;28;20210;-75
2022/01/21 13:35:42;;;;;;;1.53;1.43;;;6.50;99.90;;;;;;5012762;28;20254;-74
2022/01/21 13:38:13;;;;;;;0.67;0.60;;;6.60;99.90;;;;;;5013581;28;20538;-73
2022/01/21 13:40:43;;;;;;;0.70;0.60;;;6.50;99.90;;;;;;5009712;28;20958;-73
2022/01/21 13:43:22;;;;;;;0.67;0.60;;;6.40;99.90;;;;;;5010951;28;20461;-73
2022/01/21 13:45:53;;;;;;;0.83;0.83;;;6.40;99.90;;;;;;5010235;28;20426;-73
2022/01/21 13:48:19;;;;;;;1.23;1.13;;;6.30;99.90;;;;;;5009344;28;20456;-74
2022/01/21 13:50:46;;;;;;;0.93;0.93;;;6.30;99.90;;;;;;5016494;28;20529;-75
2022/01/21 13:53:13;;;;;;;2.10;1.20;;;6.20;99.90;;;;;;5013440;28;20423;-73
2022/01/21 13:55:42;;;;;;;0.67;0.63;;;6.20;99.90;;;;;;5012195;28;20431;-74
2022/01/21 13:58:15;;;;;;;1.07;1.07;;;6.20;99.90;;;;;;5011712;28;20458;-73
2022/01/21 14:00:54;;;;;;;2.90;1.27;;;6.30;99.90;;;;;;5010931;28;20423;-73